createdAt,value
2022-10-31T00:01:37.860Z,71.55
2022-10-31T00:04:45.827Z,54.50
2022-10-31T00:07:51.236Z,36.85
2022-10-31T00:10:56.630Z,94.97
2022-10-31T00:14:02.888Z,91.65
2022-10-31T00:17:08.008Z,174.35
2022-10-31T00:20:20.803Z,75.03
2022-10-31T00:23:26.026Z,155.20
2022-10-31T00:26:36.873Z,107.10
2022-10-31T00:29:43.249Z,123.40
2022-10-31T00:32:51.644Z,127.00
2022-10-31T00:36:15.897Z,101.40
2022-10-31T00:39:24.070Z,73.95
2022-10-31T00:42:31.676Z,74.35
2022-10-31T00:45:47.733Z,195.48
2022-10-31T00:48:55.609Z,76.05
2022-10-31T00:52:04.403Z,115.82
2022-10-31T00:55:30.110Z,130.80
2022-10-31T00:58:50.447Z,112.28
2022-10-31T01:02:03.561Z,122.43
2022-10-31T01:05:10.652Z,92.95
2022-10-31T01:08:46.954Z,69.50
2022-10-31T01:11:55.175Z,137.77
2022-10-31T01:15:08.306Z,151.05
2022-10-31T01:18:17.205Z,70.43
2022-10-31T01:21:28.331Z,76.70
2022-10-31T01:24:34.654Z,67.13
2022-10-31T01:28:01.123Z,137.57
2022-10-31T01:31:14.025Z,89.47
2022-10-31T01:34:20.317Z,225.38
2022-10-31T01:37:27.229Z,363.38
2022-10-31T01:40:35.524Z,214.00
2022-10-31T01:43:58.664Z,155.88
2022-10-31T01:50:34.231Z,190.88
2022-10-31T01:53:41.926Z,230.90
2022-10-31T01:56:53.593Z,210.68
2022-10-31T02:00:08.681Z,300.30
2022-10-31T02:03:18.942Z,124.53
2022-10-31T02:06:32.586Z,261.38
2022-10-31T02:09:38.809Z,295.50
2022-10-31T02:12:47.669Z,126.38
2022-10-31T02:15:54.545Z,351.60
2022-10-31T02:19:10.152Z,69.47
2022-10-31T02:22:20.653Z,128.50
2022-10-31T02:25:56.406Z,133.80
2022-10-31T02:29:20.107Z,113.65
2022-10-31T02:32:35.808Z,120.15
2022-10-31T02:35:48.437Z,115.00
2022-10-31T02:39:00.645Z,84.50
2022-10-31T02:42:11.892Z,98.35
2022-10-31T02:45:27.522Z,87.30
2022-10-31T02:48:37.523Z,70.72
2022-10-31T02:51:44.209Z,90.78
2022-10-31T02:54:50.811Z,79.03
2022-10-31T02:58:01.938Z,183.35
2022-10-31T03:01:14.639Z,137.02
2022-10-31T03:04:33.356Z,93.72
2022-10-31T03:07:47.125Z,79.78
2022-10-31T03:10:57.428Z,149.43
2022-10-31T03:14:07.847Z,175.10
2022-10-31T03:17:22.105Z,237.20
2022-10-31T03:20:41.642Z,168.85
2022-10-31T03:23:50.159Z,223.18
2022-10-31T03:27:01.840Z,98.32
2022-10-31T03:30:09.792Z,70.28
2022-10-31T03:33:19.764Z,134.65
2022-10-31T03:36:30.460Z,201.02
2022-10-31T03:39:39.539Z,181.70
2022-10-31T03:42:46.126Z,175.45
2022-10-31T03:45:54.606Z,202.25
2022-10-31T03:49:15.408Z,149.13
2022-10-31T03:52:34.107Z,151.35
2022-10-31T03:55:49.587Z,104.25
2022-10-31T03:59:03.774Z,166.63
2022-10-31T04:05:47.736Z,217.57
2022-10-31T04:09:04.620Z,246.20
2022-10-31T04:12:32.792Z,191.85
2022-10-31T04:15:45.556Z,136.60
2022-10-31T04:19:15.298Z,158.02
2022-10-31T04:30:10.874Z,188.48
2022-10-31T04:37:14.300Z,119.20
2022-10-31T04:40:43.549Z,212.07
2022-10-31T04:43:58.332Z,205.13
2022-10-31T04:47:45.279Z,98.90
2022-10-31T04:54:37.257Z,180.30
2022-10-31T05:15:50.288Z,270.33
2022-10-31T05:19:05.754Z,363.05
2022-10-31T05:22:20.144Z,204.23
2022-10-31T05:25:36.219Z,191.98
2022-10-31T05:28:45.978Z,182.25
2022-10-31T05:31:52.571Z,206.90
2022-10-31T05:35:02.317Z,163.80
2022-10-31T05:38:09.690Z,226.70
2022-10-31T05:41:20.467Z,223.55
2022-10-31T05:44:31.876Z,208.27
2022-10-31T05:47:43.553Z,204.98
2022-10-31T05:50:48.585Z,305.92
2022-10-31T05:53:55.965Z,259.65
2022-10-31T05:57:02.015Z,234.57
2022-10-31T06:00:22.202Z,225.70
2022-10-31T06:03:30.885Z,251.43
2022-10-31T06:06:43.545Z,178.43
2022-10-31T06:09:51.082Z,214.02
2022-10-31T06:12:59.963Z,193.38
2022-10-31T06:16:10.670Z,332.67
2022-10-31T06:19:18.354Z,260.20
2022-10-31T06:22:25.752Z,246.40
2022-10-31T06:25:31.382Z,209.13
2022-10-31T06:28:39.157Z,121.88
2022-10-31T06:31:48.601Z,149.30
2022-10-31T06:35:02.681Z,139.98
2022-10-31T06:38:11.764Z,140.77
2022-10-31T06:41:19.110Z,186.13
2022-10-31T06:44:25.065Z,158.88
2022-10-31T06:47:35.298Z,214.27
2022-10-31T06:51:04.875Z,124.97
2022-10-31T06:54:25.748Z,162.30
2022-10-31T06:57:34.704Z,160.32
2022-10-31T07:00:43.096Z,111.72
2022-10-31T07:03:51.516Z,113.57
2022-10-31T07:06:57.273Z,142.98
2022-10-31T07:10:03.937Z,132.13
2022-10-31T07:13:14.987Z,168.40
2022-10-31T07:16:21.114Z,120.07
2022-10-31T07:19:33.364Z,240.70
2022-10-31T07:22:41.428Z,93.97
2022-10-31T07:25:48.914Z,119.10
2022-10-31T07:29:00.494Z,83.30
2022-10-31T07:32:17.421Z,100.05
2022-10-31T07:38:49.632Z,131.18
2022-10-31T07:41:58.313Z,214.85
2022-10-31T07:45:04.409Z,111.53
2022-10-31T07:55:31.737Z,138.32
2022-10-31T07:58:58.430Z,168.75
2022-10-31T08:02:12.447Z,161.55
2022-10-31T08:05:34.060Z,91.35
2022-10-31T08:08:42.185Z,118.57
2022-10-31T08:11:51.045Z,170.02
2022-10-31T08:15:03.912Z,73.97
2022-10-31T08:18:12.549Z,127.47
2022-10-31T08:21:24.716Z,156.02
2022-10-31T08:24:34.647Z,71.43
2022-10-31T08:27:44.257Z,165.48
2022-10-31T08:30:51.922Z,122.45
2022-10-31T08:33:57.244Z,194.73
2022-10-31T08:37:09.683Z,159.55
2022-10-31T08:40:24.929Z,162.90
2022-10-31T08:43:33.785Z,99.90
2022-10-31T08:46:39.290Z,314.73
2022-10-31T08:49:55.765Z,65.05
2022-10-31T08:53:10.191Z,93.03
2022-10-31T08:56:25.678Z,204.43
2022-10-31T08:59:31.085Z,133.25
2022-10-31T09:02:43.381Z,150.52
2022-10-31T09:05:50.394Z,121.57
2022-10-31T09:08:58.061Z,73.50
2022-10-31T09:12:08.962Z,105.50
2022-10-31T09:15:16.831Z,153.30
2022-10-31T09:18:25.568Z,154.00
2022-10-31T09:21:34.955Z,64.70
2022-10-31T09:24:48.827Z,178.77
2022-10-31T09:28:00.039Z,94.75
2022-10-31T09:31:05.362Z,113.20
2022-10-31T09:34:11.598Z,102.20
2022-10-31T09:37:16.987Z,142.70
2022-10-31T09:40:24.388Z,90.05
2022-10-31T09:43:38.934Z,68.72
2022-10-31T09:46:49.818Z,180.93
2022-10-31T09:50:02.350Z,110.43
2022-10-31T09:53:09.931Z,111.63
2022-10-31T09:56:18.099Z,96.75
2022-10-31T09:59:32.678Z,107.03
2022-10-31T10:02:44.934Z,57.58
2022-10-31T10:05:53.749Z,85.88
2022-10-31T10:09:05.408Z,103.30
2022-10-31T10:15:44.742Z,85.18
2022-10-31T10:19:03.845Z,153.43
2022-10-31T10:22:16.865Z,75.50
2022-10-31T10:25:25.218Z,77.45
2022-10-31T10:28:34.884Z,78.93
2022-10-31T10:31:47.566Z,112.90
2022-10-31T10:34:57.907Z,67.70
2022-10-31T10:38:06.186Z,114.07
2022-10-31T10:41:17.460Z,116.70
2022-10-31T10:44:23.854Z,52.17
2022-10-31T10:47:45.233Z,85.72
2022-10-31T10:50:53.737Z,36.17
2022-10-31T10:54:10.427Z,31.50
2022-10-31T10:57:29.933Z,30.70
2022-10-31T11:00:36.188Z,34.30
2022-10-31T11:03:47.157Z,34.65
2022-10-31T11:07:02.849Z,26.52
2022-10-31T11:10:19.006Z,32.45
2022-10-31T11:13:29.100Z,39.05
2022-10-31T11:16:41.552Z,38.20
2022-10-31T11:19:51.395Z,25.00
2022-10-31T11:23:05.889Z,30.60
2022-10-31T11:26:22.792Z,35.38
2022-10-31T11:29:33.616Z,34.35
2022-10-31T11:32:39.097Z,31.05
2022-10-31T11:35:49.925Z,29.60
2022-10-31T11:39:00.743Z,24.27
2022-10-31T11:42:11.975Z,21.63
2022-10-31T11:45:19.138Z,32.30
2022-10-31T11:48:26.704Z,26.23
2022-10-31T11:51:39.235Z,27.67
2022-10-31T11:54:50.162Z,33.67
2022-10-31T11:58:01.496Z,46.38
2022-10-31T12:01:14.137Z,38.08
2022-10-31T12:04:20.217Z,23.30
2022-10-31T12:07:33.423Z,18.98
2022-10-31T12:10:42.136Z,30.45
2022-10-31T12:13:59.864Z,31.05
2022-10-31T12:17:21.257Z,42.50
2022-10-31T12:20:30.814Z,43.92
2022-10-31T12:23:49.158Z,38.95
2022-10-31T12:27:01.071Z,39.38
2022-10-31T12:30:19.935Z,43.97
2022-10-31T12:33:33.433Z,42.47
2022-10-31T12:36:44.493Z,47.35
2022-10-31T12:39:58.535Z,74.90
2022-10-31T12:43:12.394Z,36.35
2022-10-31T12:46:25.268Z,30.92
2022-10-31T12:52:44.981Z,29.52
2022-10-31T12:59:00.205Z,39.33
2022-10-31T13:02:15.101Z,28.10
2022-10-31T13:05:23.626Z,25.45
2022-10-31T13:08:31.617Z,29.75
2022-10-31T13:11:39.645Z,25.83
2022-10-31T13:14:51.769Z,22.65
2022-10-31T13:17:59.277Z,25.75
2022-10-31T13:21:08.220Z,15.50
2022-10-31T13:24:17.953Z,18.33
2022-10-31T13:27:27.338Z,13.35
2022-10-31T13:30:45.407Z,17.38
2022-10-31T13:33:52.173Z,19.25
2022-10-31T13:37:04.248Z,41.60
2022-10-31T13:40:22.534Z,32.60
2022-10-31T13:43:36.973Z,23.25
2022-10-31T13:46:47.271Z,26.88
2022-10-31T13:49:53.349Z,16.92
2022-10-31T13:53:14.933Z,29.00
2022-10-31T13:56:25.442Z,28.67
2022-10-31T13:59:32.317Z,25.77
2022-10-31T14:02:49.581Z,19.88
2022-10-31T14:05:58.664Z,28.10
2022-10-31T14:09:11.995Z,28.58
2022-10-31T14:12:31.494Z,28.77
2022-10-31T14:15:37.194Z,21.33
2022-10-31T14:18:53.229Z,38.90
2022-10-31T14:22:02.127Z,25.67
2022-10-31T14:25:28.676Z,20.10
2022-10-31T14:28:36.369Z,37.22
2022-10-31T14:31:42.614Z,37.42
2022-10-31T14:34:59.509Z,31.90
2022-10-31T14:38:10.851Z,25.67
2022-10-31T14:41:34.134Z,23.35
2022-10-31T14:44:55.017Z,26.73
2022-10-31T14:48:08.173Z,22.23
2022-10-31T14:51:18.743Z,12.38
2022-10-31T14:54:29.325Z,18.77
2022-10-31T14:57:39.020Z,13.88
2022-10-31T15:00:51.902Z,12.55
2022-10-31T15:04:21.790Z,12.40
2022-10-31T15:07:28.088Z,8.20
2022-10-31T15:10:36.115Z,14.63
2022-10-31T15:13:45.951Z,10.85
2022-10-31T15:16:52.576Z,7.72
2022-10-31T15:19:59.261Z,8.00
2022-10-31T15:23:10.140Z,11.95
2022-10-31T15:26:20.875Z,14.48
2022-10-31T15:29:30.838Z,12.10
2022-10-31T15:32:47.018Z,17.23
2022-10-31T15:36:00.561Z,11.52
2022-10-31T15:39:13.700Z,10.43
2022-10-31T15:42:23.871Z,11.50
2022-10-31T15:45:31.639Z,11.15
2022-10-31T15:48:37.025Z,14.40
2022-10-31T15:51:44.264Z,21.52
2022-10-31T15:54:55.633Z,16.98
2022-10-31T15:58:03.076Z,11.82
2022-10-31T16:01:09.029Z,10.10
2022-10-31T16:04:25.419Z,9.45
2022-10-31T16:07:33.142Z,10.57
2022-10-31T16:10:41.423Z,11.10
2022-10-31T16:13:55.957Z,12.55
2022-10-31T16:17:02.843Z,7.57
2022-10-31T16:20:09.013Z,8.05
2022-10-31T16:23:19.599Z,11.77
2022-10-31T16:26:28.326Z,6.47
2022-10-31T16:29:37.080Z,9.23
2022-10-31T16:32:57.705Z,7.82
2022-10-31T16:36:30.089Z,7.25
2022-10-31T16:39:36.996Z,10.45
2022-10-31T16:42:45.161Z,7.85
2022-10-31T16:45:51.005Z,11.18
2022-10-31T16:48:58.999Z,9.55
2022-10-31T16:52:07.131Z,10.75
2022-10-31T16:55:14.802Z,11.73
2022-10-31T16:58:26.137Z,13.57
2022-10-31T17:01:32.402Z,11.13
2022-10-31T17:04:40.960Z,9.55
2022-10-31T17:07:48.625Z,18.45
2022-10-31T17:11:00.595Z,23.60
2022-10-31T17:14:10.556Z,22.80
2022-10-31T17:17:15.593Z,19.88
2022-10-31T17:20:22.963Z,17.77
2022-10-31T17:23:33.427Z,24.38
2022-10-31T17:26:38.937Z,22.55
2022-10-31T17:29:46.747Z,17.33
2022-10-31T17:32:53.142Z,19.85
2022-10-31T17:35:58.565Z,18.67
2022-10-31T17:39:05.611Z,23.38
2022-10-31T17:42:12.953Z,22.27
2022-10-31T17:45:24.813Z,16.38
2022-10-31T17:48:30.684Z,20.25
2022-10-31T17:51:45.115Z,18.00
2022-10-31T17:54:53.446Z,15.23
2022-10-31T17:57:59.479Z,13.15
2022-10-31T18:01:14.159Z,14.15
2022-10-31T18:04:22.178Z,16.80
2022-10-31T18:07:31.857Z,15.07
2022-10-31T18:10:44.116Z,15.85
2022-10-31T18:14:01.593Z,13.00
2022-10-31T18:17:11.413Z,16.40
2022-10-31T18:20:16.783Z,19.75
2022-10-31T18:23:22.613Z,16.10
2022-10-31T18:26:31.477Z,14.45
2022-10-31T18:29:39.338Z,12.50
2022-10-31T18:32:47.760Z,17.38
2022-10-31T18:36:00.355Z,13.88
2022-10-31T18:39:05.899Z,20.25
2022-10-31T18:42:18.265Z,17.20
2022-10-31T18:45:45.905Z,19.60
2022-10-31T18:48:56.841Z,18.23
2022-10-31T18:52:02.847Z,14.40
2022-10-31T18:55:09.138Z,19.05
2022-10-31T18:58:17.345Z,17.17
2022-10-31T19:01:23.772Z,25.48
2022-10-31T19:04:31.814Z,24.10
2022-10-31T19:07:37.732Z,20.52
2022-10-31T19:10:43.113Z,26.58
2022-10-31T19:13:49.166Z,24.98
2022-10-31T19:17:01.194Z,22.80
2022-10-31T19:20:15.121Z,24.67
2022-10-31T19:23:20.975Z,16.60
2022-10-31T19:26:28.299Z,37.47
2022-10-31T19:29:34.040Z,20.50
2022-10-31T19:32:39.837Z,26.05
2022-10-31T19:35:48.932Z,23.05
2022-10-31T19:38:56.925Z,37.55
2022-10-31T19:42:03.479Z,30.08
2022-10-31T19:45:09.862Z,25.95
2022-10-31T19:48:15.226Z,19.05
2022-10-31T19:51:24.751Z,26.73
2022-10-31T19:54:30.226Z,18.65
2022-10-31T20:01:02.962Z,24.58
2022-10-31T20:04:08.452Z,29.98
2022-10-31T20:07:19.456Z,28.20
2022-10-31T20:10:25.274Z,35.13
2022-10-31T20:13:31.076Z,28.02
2022-10-31T20:16:39.197Z,30.08
2022-10-31T20:19:48.745Z,39.47
2022-10-31T20:22:56.817Z,46.58
2022-10-31T20:26:01.805Z,39.75
2022-10-31T20:29:08.876Z,32.22
2022-10-31T20:32:14.018Z,20.40
2022-10-31T20:35:21.344Z,19.95
2022-10-31T20:38:30.434Z,17.20
2022-10-31T20:41:39.485Z,16.45
2022-10-31T20:44:45.332Z,19.15
2022-10-31T20:47:50.810Z,22.80
2022-10-31T20:50:58.561Z,15.80
2022-10-31T20:54:08.201Z,19.40
2022-10-31T20:57:13.612Z,17.92
2022-10-31T21:00:19.556Z,16.65
2022-10-31T21:03:26.070Z,17.13
2022-10-31T21:06:32.026Z,17.02
2022-10-31T21:09:40.983Z,16.92
2022-10-31T21:12:47.218Z,20.48
2022-10-31T21:16:02.215Z,14.93
2022-10-31T21:19:08.070Z,19.63
2022-10-31T21:22:21.023Z,21.92
2022-10-31T21:25:29.707Z,20.50
2022-10-31T21:28:38.183Z,20.77
2022-10-31T21:31:44.273Z,23.48
2022-10-31T21:34:53.081Z,29.92
2022-10-31T21:37:58.711Z,25.15
2022-10-31T21:41:07.368Z,20.00
2022-10-31T21:44:14.146Z,23.10
2022-10-31T21:47:19.926Z,19.25
2022-10-31T21:50:26.333Z,19.73
2022-10-31T21:53:46.023Z,17.50
2022-10-31T21:56:55.837Z,22.27
2022-10-31T22:00:00.793Z,24.85
2022-10-31T22:03:06.497Z,21.38
2022-10-31T22:06:12.261Z,21.63
2022-10-31T22:09:19.892Z,22.45
2022-10-31T22:12:30.218Z,20.75
2022-10-31T22:15:40.916Z,25.88
2022-10-31T22:18:46.355Z,25.08
2022-10-31T22:21:55.757Z,22.73
2022-10-31T22:25:00.991Z,26.25
2022-10-31T22:28:09.461Z,24.15
2022-10-31T22:31:15.523Z,19.50
2022-10-31T22:34:23.699Z,23.23
2022-10-31T22:37:29.002Z,22.02
2022-10-31T22:40:38.919Z,23.63
2022-10-31T22:43:47.853Z,26.85
2022-10-31T22:46:53.527Z,20.73
2022-10-31T22:49:58.537Z,15.93
2022-10-31T22:53:03.871Z,22.73
2022-10-31T22:56:10.928Z,20.55
2022-10-31T22:59:26.579Z,21.27
2022-10-31T23:02:32.739Z,20.10
2022-10-31T23:05:38.577Z,27.45
2022-10-31T23:08:43.743Z,31.77
2022-10-31T23:11:50.787Z,36.17
2022-10-31T23:14:56.154Z,23.27
2022-10-31T23:18:08.194Z,16.30
2022-10-31T23:21:32.860Z,14.75
2022-10-31T23:24:42.653Z,16.23
2022-10-31T23:27:50.169Z,14.75
2022-10-31T23:30:58.568Z,11.07
2022-10-31T23:34:03.954Z,13.50
2022-10-31T23:37:09.699Z,12.50
2022-10-31T23:40:15.129Z,12.45
2022-10-31T23:43:20.762Z,13.02
2022-10-31T23:46:28.584Z,16.95
2022-10-31T23:49:33.983Z,19.90
2022-10-31T23:52:40.604Z,19.20
2022-10-31T23:55:46.272Z,16.50
2022-10-31T23:58:51.234Z,20.33
